Portada
METAR-TAF:

METAR-TAF

Aeroports :

Newport, Vermont, Estats Units d'Amèrica

latitud: 44-53-20N, longitud: 072-13-45W, altitud: 283 m

Observació

L'informe es va fer fa 10 minuts, a les 08:56 UTC
Vent calma
Temperatura 12°C
Humitat 100%
Pressió 1011 hPa
Visibilitat: 16.1 km
Núvols disperses a una alçada de 1900 ft
Cel ennuvolat a una alçada de 2500 ft
Cel ennuvolat a una alçada de 3800 ft

METAR: KEFK 160856Z AUTO 00000KT 10SM SCT019 BKN025 BKN038 12/12 A2985 RMK AO2 T01200120

Hora: 05:06 (09:06 UTC)


TAF: manca

Observacions i pronòstics meteorològics de més de 4000 aeroports (METAR i TAF).

Les estacions disponibles són els punts grocs i vermells al mapa.

Posi el ratolí al punt desitjat per veure el nom de l'estació.

Feu clic per veure les observacions i els pronòstics meteorològics.

Per canviar el mapa: feu clic els botons verds amb una creu de color negre per apropar; al botó verd amb un guió per allunyar la imatge; o en les fletxes verdes per a mapes adjacents.


METAR-TAF: